Time;durP1;ratioP1;P1;durP2;ratioP2;P2;SDS_P1;SDS_P2;PMS_P1;PMS_P2;Temp;Humidity;BMP_temperature;BMP_pressure;BME280_temperature;BME280_humidity;BME280_pressure;Samples;Min_cycle;Max_cycle;Signal;HPM_P1;HPM_P2
2021/11/20 00:02:13;;;;;;;37.95;8.93;;;;;;;-145.71;100.00;60690.53;4783695;30;20046;-94
2021/11/20 00:05:39;;;;;;;36.78;7.55;;;;;;;-145.71;100.00;60690.53;4782058;30;20067;-94
2021/11/20 00:09:05;;;;;;;35.85;6.78;;;;;;;-145.71;100.00;60690.53;4774744;30;20028;-93
2021/11/20 00:12:32;;;;;;;36.97;6.32;;;;;;;-145.71;100.00;60690.53;4772416;30;20047;-93
2021/11/20 00:16:01;;;;;;;44.13;9.68;;;;;;;-145.71;100.00;60690.53;4773860;30;20039;-94
2021/11/20 00:19:28;;;;;;;40.15;8.95;;;;;;;-145.71;100.00;60690.53;4773677;30;20039;-93
2021/11/20 00:44:18;;;;;;;23.83;6.60;;;;;;;-145.71;100.00;60690.53;5366433;24;20065;-93
2021/11/20 00:47:44;;;;;;;30.83;5.55;;;;;;;-145.71;100.00;60690.53;4777257;30;20062;-93
2021/11/20 00:51:10;;;;;;;29.08;7.53;;;;;;;-145.71;100.00;60690.53;4780679;30;20117;-93
2021/11/20 00:54:35;;;;;;;24.58;5.28;;;;;;;-145.71;100.00;60690.53;4781142;30;20039;-94
2021/11/20 01:01:56;;;;;;;24.98;4.72;;;;;;;-145.71;100.00;60690.53;4808857;24;20059;-93
2021/11/20 01:05:21;;;;;;;31.27;5.40;;;;;;;-145.71;100.00;60690.53;4785300;30;20047;-94
2021/11/20 01:08:48;;;;;;;20.67;5.28;;;;;;;-145.71;100.00;60690.53;4787333;30;20051;-94
2021/11/20 01:12:21;;;;;;;18.40;3.85;;;;;;;-145.71;100.00;60690.53;4790529;29;20016;-93
2021/11/20 01:15:51;;;;;;;27.25;4.47;;;;;;;-145.71;100.00;60690.53;4782422;30;20460;-94
2021/11/20 01:19:20;;;;;;;20.73;3.85;;;;;;;-145.71;100.00;60690.53;4797646;30;20039;-93
2021/11/20 01:22:49;;;;;;;23.42;4.93;;;;;;;-145.71;100.00;60690.53;4782576;30;20035;-93
2021/11/20 01:26:15;;;;;;;20.05;4.00;;;;;;;-145.71;100.00;60690.53;4782468;30;20043;-93
2021/11/20 01:29:41;;;;;;;19.52;4.20;;;;;;;-145.71;100.00;60690.53;4799880;30;20051;-94
2021/11/20 01:33:05;;;;;;;25.30;6.55;;;;;;;-145.71;100.00;60690.53;4782471;30;20050;-94
2021/11/20 01:36:31;;;;;;;14.82;3.47;;;;;;;-145.71;100.00;60690.53;4788221;24;20108;-94
2021/11/20 01:40:01;;;;;;;17.95;3.47;;;;;;;-145.71;100.00;60690.53;4767095;30;20048;-95
2021/11/20 01:43:30;;;;;;;20.13;4.32;;;;;;;-145.71;100.00;60690.53;4745078;30;20049;-93
2021/11/20 01:54:23;;;;;;;11.13;3.22;;;;;;;-145.71;100.00;60690.53;4784193;30;20505;-94
2021/11/20 01:57:52;;;;;;;24.47;4.13;;;;;;;-145.71;100.00;60690.53;4844427;24;20064;-95
2021/11/20 02:01:43;;;;;;;16.63;3.05;;;;;;;-145.71;100.00;60690.53;4917207;24;20281;-94
2021/11/20 02:05:34;;;;;;;16.45;3.58;;;;;;;-145.71;100.00;60690.53;4818204;29;20059;-93
2021/11/20 02:09:22;;;;;;;15.30;3.40;;;;;;;-145.71;100.00;60690.53;4788883;30;20059;-94
2021/11/20 02:12:50;;;;;;;13.95;2.90;;;;;;;-145.71;100.00;60690.53;4782448;30;20044;-93
2021/11/20 02:16:32;;;;;;;17.38;3.08;;;;;;;-145.71;100.00;60690.53;4780508;30;20103;-94
2021/11/20 02:20:04;;;;;;;12.77;2.92;;;;;;;-145.71;100.00;60690.53;4778528;30;20044;-93
2021/11/20 02:23:31;;;;;;;12.93;3.40;;;;;;;-145.71;100.00;60690.53;4778689;30;20490;-93
2021/11/20 02:26:57;;;;;;;12.38;3.00;;;;;;;-145.71;100.00;60690.53;4790868;30;20047;-93
2021/11/20 02:30:27;;;;;;;10.82;2.47;;;;;;;-145.71;100.00;60690.53;4789987;30;20058;-93
2021/11/20 02:33:54;;;;;;;12.07;4.15;;;;;;;-145.71;100.00;60690.53;4780335;30;20040;-94
2021/11/20 02:37:21;;;;;;;10.68;3.05;;;;;;;-145.71;100.00;60690.53;4786844;30;20046;-94
2021/11/20 02:40:46;;;;;;;11.65;3.47;;;;;;;-145.71;100.00;60690.53;4780397;30;20245;-94
2021/11/20 02:44:13;;;;;;;10.38;2.85;;;;;;;-145.71;100.00;60690.53;4781406;30;20123;-94
2021/11/20 02:47:42;;;;;;;11.98;3.60;;;;;;;-145.71;100.00;60690.53;4778388;30;20035;-93
2021/11/20 02:51:09;;;;;;;12.52;3.83;;;;;;;-145.71;100.00;60690.53;4778750;30;20079;-94
2021/11/20 02:54:35;;;;;;;14.82;2.42;;;;;;;-145.71;100.00;60690.53;4776912;30;20036;-94
2021/11/20 02:58:05;;;;;;;12.25;3.45;;;;;;;-145.71;100.00;60690.53;4779099;30;20036;-93
2021/11/20 03:01:33;;;;;;;9.45;2.10;;;;;;;-145.71;100.00;60690.53;4782247;30;20039;-94
2021/11/20 03:04:58;;;;;;;7.72;2.30;;;;;;;-145.71;100.00;60690.53;4775655;30;20425;-93
2021/11/20 03:08:22;;;;;;;12.98;3.50;;;;;;;-145.71;100.00;60690.53;4773069;30;20036;-93
2021/11/20 03:11:46;;;;;;;12.30;2.75;;;;;;;-145.71;100.00;60690.53;4768980;30;20659;-93
2021/11/20 03:15:11;;;;;;;17.20;3.30;;;;;;;-145.71;100.00;60690.53;4768803;30;20036;-93
2021/11/20 03:18:35;;;;;;;21.23;3.63;;;;;;;-145.71;100.00;60690.53;4769447;30;20046;-93
2021/11/20 03:22:02;;;;;;;15.68;3.10;;;;;;;-145.71;100.00;60690.53;4770764;30;20036;-93
2021/11/20 03:25:27;;;;;;;22.60;5.22;;;;;;;-145.71;100.00;60690.53;4773025;30;20126;-94
2021/11/20 03:28:54;;;;;;;15.05;4.20;;;;;;;-145.71;100.00;60690.53;4782366;30;20050;-94
2021/11/20 03:32:24;;;;;;;18.55;4.30;;;;;;;-145.71;100.00;60690.53;4774792;30;20071;-94
2021/11/20 03:35:49;;;;;;;16.42;3.63;;;;;;;-145.71;100.00;60690.53;4773476;30;20044;-93
2021/11/20 03:39:14;;;;;;;14.90;3.97;;;;;;;-145.71;100.00;60690.53;4775988;30;20063;-93
2021/11/20 03:42:38;;;;;;;15.80;3.15;;;;;;;-145.71;100.00;60690.53;4778128;30;20071;-94
2021/11/20 03:46:05;;;;;;;14.30;3.33;;;;;;;-145.71;100.00;60690.53;4771067;30;20032;-93
2021/11/20 03:49:29;;;;;;;16.08;3.00;;;;;;;-145.71;100.00;60690.53;4771299;30;20039;-93
2021/11/20 03:52:54;;;;;;;15.55;3.70;;;;;;;-145.71;100.00;60690.53;4777127;30;20020;-93
2021/11/20 03:56:20;;;;;;;21.55;3.60;;;;;;;-145.71;100.00;60690.53;4768836;30;20101;-93
2021/11/20 03:59:44;;;;;;;19.45;3.05;;;;;;;-145.71;100.00;60690.53;4775699;30;20127;-94
2021/11/20 04:03:10;;;;;;;15.88;3.70;;;;;;;-145.71;100.00;60690.53;4775446;30;20078;-94
2021/11/20 04:06:36;;;;;;;20.38;3.75;;;;;;;-145.71;100.00;60690.53;4775878;30;20393;-94
2021/11/20 04:10:00;;;;;;;27.75;4.40;;;;;;;-145.71;100.00;60690.53;4760624;30;20067;-94
2021/11/20 04:13:24;;;;;;;28.73;5.40;;;;;;;-145.71;100.00;60690.53;4747613;30;20047;-94
2021/11/20 04:16:49;;;;;;;37.33;5.28;;;;;;;-145.71;100.00;60690.53;4758890;30;20043;-93
2021/11/20 04:20:16;;;;;;;35.15;6.53;;;;;;;-145.71;100.00;60690.53;4747780;30;20051;-93
2021/11/20 04:23:45;;;;;;;42.58;5.97;;;;;;;-145.71;100.00;60690.53;4758448;30;20047;-93
2021/11/20 04:27:10;;;;;;;35.33;6.40;;;;;;;-145.71;100.00;60690.53;4757797;30;20458;-93
2021/11/20 04:30:37;;;;;;;35.65;5.93;;;;;;;-145.71;100.00;60690.53;4758804;30;20071;-94
2021/11/20 04:34:02;;;;;;;39.35;6.47;;;;;;;-145.71;100.00;60690.53;4758382;30;20063;-93
2021/11/20 04:37:26;;;;;;;35.47;7.43;;;;;;;-145.71;100.00;60690.53;4757732;30;20131;-93
2021/11/20 04:40:57;;;;;;;44.63;7.40;;;;;;;-145.71;100.00;60690.53;4759182;30;20036;-94
2021/11/20 04:44:21;;;;;;;44.15;8.65;;;;;;;-145.71;100.00;60690.53;4743783;30;20037;-94
2021/11/20 04:47:45;;;;;;;35.50;6.30;;;;;;;-145.71;100.00;60690.53;4756195;30;20405;-93
2021/11/20 04:51:11;;;;;;;42.50;6.78;;;;;;;-145.71;100.00;60690.53;4774456;30;20027;-93
2021/11/20 04:54:36;;;;;;;51.58;8.02;;;;;;;-145.71;100.00;60690.53;4756603;30;20036;-93
2021/11/20 04:58:01;;;;;;;49.00;7.55;;;;;;;-145.71;100.00;60690.53;4758224;30;20032;-94
2021/11/20 05:01:38;;;;;;;48.35;7.90;;;;;;;-145.71;100.00;60690.53;4762530;30;20104;-94
2021/11/20 05:05:03;;;;;;;47.58;8.07;;;;;;;-145.71;100.00;60690.53;4793715;30;20059;-94
2021/11/20 05:08:29;;;;;;;39.50;7.68;;;;;;;-145.71;100.00;60690.53;4793617;30;20031;-94
2021/11/20 05:11:54;;;;;;;43.75;7.85;;;;;;;-145.71;100.00;60690.53;4741044;30;20106;-94
2021/11/20 05:15:24;;;;;;;44.60;9.10;;;;;;;-145.71;100.00;60690.53;4766483;24;20072;-94
2021/11/20 05:18:50;;;;;;;35.25;6.30;;;;;;;-145.71;100.00;60690.53;4863880;24;20044;-94
2021/11/20 05:22:16;;;;;;;37.35;7.25;;;;;;;-145.71;100.00;60690.53;4760940;30;20059;-94
2021/11/20 05:25:41;;;;;;;35.97;7.07;;;;;;;-145.71;100.00;60690.53;4760370;30;20036;-94
2021/11/20 05:29:09;;;;;;;36.55;7.57;;;;;;;-145.71;100.00;60690.53;4778846;30;20521;-94
2021/11/20 05:32:34;;;;;;;35.83;8.35;;;;;;;-145.71;100.00;60690.53;4829581;24;20429;-93
2021/11/20 05:35:59;;;;;;;33.60;7.13;;;;;;;-145.71;100.00;60690.53;4776452;30;20062;-94
2021/11/20 05:39:28;;;;;;;42.50;8.27;;;;;;;-145.71;100.00;60690.53;4776462;30;20032;-93
2021/11/20 05:42:57;;;;;;;44.67;8.13;;;;;;;-145.71;100.00;60690.53;4760162;30;20124;-93
2021/11/20 05:46:25;;;;;;;32.00;6.45;;;;;;;-145.71;100.00;60690.53;4785188;29;20035;-94
2021/11/20 05:49:49;;;;;;;28.85;5.63;;;;;;;-145.71;100.00;60690.53;4774333;30;20098;-93
2021/11/20 05:53:15;;;;;;;38.38;7.65;;;;;;;-145.71;100.00;60690.53;4770694;30;20394;-93
2021/11/20 05:56:40;;;;;;;45.85;7.72;;;;;;;-145.71;100.00;60690.53;4770130;30;20028;-93
2021/11/20 06:00:07;;;;;;;47.67;9.98;;;;;;;-145.71;100.00;60690.53;4770272;30;20040;-93
2021/11/20 06:03:32;;;;;;;51.83;8.07;;;;;;;-145.71;100.00;60690.53;4770000;30;20045;-92
2021/11/20 06:06:57;;;;;;;57.00;10.90;;;;;;;-145.71;100.00;60690.53;4773682;30;20031;-93
2021/11/20 06:10:21;;;;;;;47.67;8.43;;;;;;;-145.71;100.00;60690.53;4771037;30;20122;-92
2021/11/20 06:13:45;;;;;;;37.72;8.80;;;;;;;-145.71;100.00;60690.53;4771602;30;20505;-93
2021/11/20 06:17:09;;;;;;;50.47;9.25;;;;;;;-145.71;100.00;60690.53;4778391;29;20036;-93
2021/11/20 06:20:33;;;;;;;44.22;8.32;;;;;;;-145.71;100.00;60690.53;4771141;30;20067;-93
2021/11/20 06:23:57;;;;;;;40.00;7.45;;;;;;;-145.71;100.00;60690.53;4780077;30;20072;-93
2021/11/20 06:27:24;;;;;;;39.60;7.90;;;;;;;-145.71;100.00;60690.53;4779151;30;20071;-94
2021/11/20 06:30:49;;;;;;;43.92;9.60;;;;;;;-145.71;100.00;60690.53;4795898;30;20059;-94
2021/11/20 06:34:14;;;;;;;38.65;8.00;;;;;;;-145.71;100.00;60690.53;4798119;30;20600;-93
2021/11/20 06:37:49;;;;;;;41.50;8.65;;;;;;;-145.71;100.00;60690.53;4791374;29;20031;-94
2021/11/20 06:41:25;;;;;;;38.83;7.73;;;;;;;-145.71;100.00;60690.53;4789767;30;20074;-93
2021/11/20 06:44:51;;;;;;;39.10;7.75;;;;;;;-145.71;100.00;60690.53;4791167;30;20077;-93
2021/11/20 06:48:15;;;;;;;50.17;8.88;;;;;;;-145.71;100.00;60690.53;4797479;29;20019;-94
2021/11/20 06:51:40;;;;;;;38.05;8.38;;;;;;;-145.71;100.00;60690.53;4787247;30;20185;-92
2021/11/20 06:55:05;;;;;;;29.73;7.65;;;;;;;-145.71;100.00;60690.53;4787607;30;20027;-92
2021/11/20 07:02:05;;;;;;;40.47;8.40;;;;;;;-145.71;100.00;60690.53;4787996;30;20065;-93
2021/11/20 07:05:32;;;;;;;41.53;8.50;;;;;;;-145.71;100.00;60690.53;4787929;30;20130;-93
2021/11/20 23:02:26;;;;;;;19.30;3.75;;;;;;;-145.71;100.00;60690.53;5096614;24;20066;-92
2021/11/20 23:05:51;;;;;;;17.67;4.22;;;;;;;-145.71;100.00;60690.53;4740391;30;20067;-93
2021/11/20 23:09:16;;;;;;;24.85;4.88;;;;;;;-145.71;100.00;60690.53;4739315;30;20569;-92
2021/11/20 23:12:40;;;;;;;17.23;2.22;;;;;;;-145.71;100.00;60690.53;4756373;29;20051;-92
2021/11/20 23:16:04;;;;;;;9.07;2.15;;;;;;;-145.71;100.00;60690.53;4750317;30;20811;-92
2021/11/20 23:19:29;;;;;;;7.68;1.90;;;;;;;-145.71;100.00;60690.53;4734728;30;20040;-93
2021/11/20 23:22:53;;;;;;;11.15;1.92;;;;;;;-145.71;100.00;60690.53;4735873;30;20737;-93
2021/11/20 23:26:18;;;;;;;14.20;2.30;;;;;;;-145.71;100.00;60690.53;4737189;30;20043;-93
2021/11/20 23:29:43;;;;;;;22.77;2.92;;;;;;;-145.71;100.00;60690.53;4735388;30;20040;-93
2021/11/20 23:33:09;;;;;;;10.90;1.80;;;;;;;-145.71;100.00;60690.53;4735821;30;20043;-93
2021/11/20 23:36:34;;;;;;;9.77;1.98;;;;;;;-145.71;100.00;60690.53;4751503;30;20078;-92
2021/11/20 23:39:58;;;;;;;14.48;2.08;;;;;;;-145.71;100.00;60690.53;4748097;30;20050;-93
2021/11/20 23:43:22;;;;;;;7.47;1.80;;;;;;;-145.71;100.00;60690.53;4735667;30;20056;-92
2021/11/20 23:46:46;;;;;;;8.98;2.08;;;;;;;-145.71;100.00;60690.53;4735185;30;20524;-92
2021/11/20 23:50:11;;;;;;;9.50;2.42;;;;;;;-145.71;100.00;60690.53;4751973;30;20040;-92
2021/11/20 23:53:35;;;;;;;17.42;2.13;;;;;;;-145.71;100.00;60690.53;4737809;30;20058;-92
2021/11/20 23:56:59;;;;;;;12.93;2.15;;;;;;;-145.71;100.00;60690.53;4752532;30;20404;-92
